Time;durP1;ratioP1;P1;durP2;ratioP2;P2;SDS_P1;SDS_P2;PMS_P1;PMS_P2;Temp;Humidity;BMP_temperature;BMP_pressure;BME280_temperature;BME280_humidity;BME280_pressure;Samples;Min_cycle;Max_cycle;Signal;HPM_P1;HPM_P2
2021/04/02 00:01:22;;;;;;;8.37;2.53;;;;;;;;;;5065840;28;20040;-58
2021/04/02 00:03:48;;;;;;;5.65;2.25;;;;;;;;;;5059369;28;20554;-58
2021/04/02 00:06:15;;;;;;;4.90;2.67;;;;;;;;;;5068198;28;20424;-58
2021/04/02 00:08:41;;;;;;;3.80;2.27;;;;;;;;;;5059891;28;20048;-58
2021/04/02 00:11:08;;;;;;;10.90;2.80;;;;;;;;;;5061036;28;20313;-58
2021/04/02 00:13:37;;;;;;;2.75;2.30;;;;;;;;;;5064887;28;20051;-58
2021/04/02 00:16:04;;;;;;;8.32;2.08;;;;;;;;;;5058933;28;20069;-58
2021/04/02 00:18:30;;;;;;;7.30;2.20;;;;;;;;;;5056643;28;20048;-58
2021/04/02 00:20:58;;;;;;;8.00;2.67;;;;;;;;;;5059399;28;20048;-58
2021/04/02 00:23:25;;;;;;;9.93;2.67;;;;;;;;;;5066778;28;20039;-58
2021/04/02 00:25:52;;;;;;;7.67;2.70;;;;;;;;;;5072887;28;20040;-58
2021/04/02 00:28:23;;;;;;;5.35;2.55;;;;;;;;;;5053422;28;20462;-58
2021/04/02 00:30:51;;;;;;;8.30;2.50;;;;;;;;;;5057602;28;20048;-58
2021/04/02 00:33:18;;;;;;;12.63;2.63;;;;;;;;;;5064821;28;20515;-59
2021/04/02 00:35:45;;;;;;;12.85;2.58;;;;;;;;;;5064238;28;20557;-59
2021/04/02 00:38:11;;;;;;;;;;;;;;;;;;5063333;28;20131;-58
2021/04/02 00:40:40;;;;;;;13.45;2.90;;;;;;;;;;5059961;28;20015;-58
2021/04/02 00:43:06;;;;;;;10.07;3.67;;;;;;;;;;5063467;28;20089;-58
2021/04/02 00:45:33;;;;;;;11.15;3.22;;;;;;;;;;5067505;28;20045;-58
2021/04/02 00:47:59;;;;;;;11.05;3.25;;;;;;;;;;5050348;28;20047;-59
2021/04/02 00:50:26;;;;;;;17.30;3.60;;;;;;;;;;5059067;28;20098;-58
2021/04/02 00:52:52;;;;;;;15.25;3.65;;;;;;;;;;5062968;28;20727;-59
2021/04/02 00:55:19;;;;;;;14.82;3.70;;;;;;;;;;5063905;28;20041;-58
2021/04/02 00:57:45;;;;;;;20.77;4.65;;;;;;;;;;5045645;28;20093;-58
2021/04/02 01:00:12;;;;;;;33.17;4.70;;;;;;;;;;5068701;28;20051;-58
2021/04/02 01:02:40;;;;;;;19.65;4.50;;;;;;;;;;5052914;28;20056;-59
2021/04/02 01:05:09;;;;;;;11.82;4.93;;;;;;;;;;5047729;28;20131;-59
2021/04/02 01:07:36;;;;;;;20.20;4.18;;;;;;;;;;5068670;28;20076;-59
2021/04/02 01:10:04;;;;;;;11.35;4.13;;;;;;;;;;5062071;28;20397;-58
2021/04/02 01:12:32;;;;;;;12.57;3.80;;;;;;;;;;5064733;28;20048;-59
2021/04/02 01:14:59;;;;;;;10.20;4.22;;;;;;;;;;5060568;28;20076;-59
2021/04/02 01:17:25;;;;;;;15.77;4.25;;;;;;;;;;5066858;28;20132;-58
2021/04/02 01:19:54;;;;;;;22.00;4.30;;;;;;;;;;5059614;28;20151;-59
2021/04/02 01:22:23;;;;;;;26.58;5.35;;;;;;;;;;5050922;28;20047;-59
2021/04/02 01:25:04;;;;;;;34.95;4.30;;;;;;;;;;5058535;28;20044;-59
2021/04/02 01:27:50;;;;;;;22.48;5.18;;;;;;;;;;5040494;28;20064;-59
2021/04/02 01:30:18;;;;;;;30.58;6.05;;;;;;;;;;5034695;28;20523;-59
2021/04/02 01:32:46;;;;;;;27.92;4.85;;;;;;;;;;5032226;28;20064;-59
2021/04/02 01:35:20;;;;;;;14.77;4.38;;;;;;;;;;5047435;28;20086;-59
2021/04/02 01:37:52;;;;;;;17.75;4.18;;;;;;;;;;5036125;28;20047;-58
2021/04/02 01:40:20;;;;;;;11.90;4.00;;;;;;;;;;5032373;28;20145;-59
2021/04/02 01:42:47;;;;;;;21.63;4.53;;;;;;;;;;5037159;28;20120;-59
2021/04/02 01:45:16;;;;;;;24.23;4.82;;;;;;;;;;5031813;28;20099;-59
2021/04/02 01:47:43;;;;;;;;;;;;;;;;;;5043934;28;20054;-59
2021/04/02 01:50:12;;;;;;;16.15;4.80;;;;;;;;;;5020465;28;19921;-58
2021/04/02 01:52:40;;;;;;;24.77;5.50;;;;;;;;;;5039121;28;20038;-59
2021/04/02 01:55:09;;;;;;;40.08;5.95;;;;;;;;;;5026338;28;20115;-59
2021/04/02 01:57:37;;;;;;;34.83;6.35;;;;;;;;;;5035281;28;20041;-59
2021/04/02 02:00:09;;;;;;;29.48;5.43;;;;;;;;;;5027389;28;20041;-59
2021/04/02 02:02:42;;;;;;;49.88;8.18;;;;;;;;;;5048318;28;20056;-59
2021/04/02 02:05:11;;;;;;;67.90;9.10;;;;;;;;;;5027350;28;20115;-58
2021/04/02 02:07:39;;;;;;;44.83;7.28;;;;;;;;;;5049928;28;20103;-59
2021/04/02 02:10:06;;;;;;;;;;;;;;;;;;5034784;28;20047;-59
2021/04/02 02:12:39;;;;;;;62.42;7.80;;;;;;;;;;5046852;28;19944;-59
2021/04/02 02:15:19;;;;;;;49.70;7.75;;;;;;;;;;5048362;28;20063;-58
2021/04/02 02:17:52;;;;;;;51.33;7.78;;;;;;;;;;5043389;28;20199;-59
2021/04/02 02:20:19;;;;;;;74.22;8.75;;;;;;;;;;5045708;28;20033;-59
2021/04/02 02:22:46;;;;;;;51.30;8.15;;;;;;;;;;5026737;28;20124;-59
2021/04/02 02:25:18;;;;;;;44.75;9.07;;;;;;;;;;5032994;28;20553;-59
2021/04/02 02:27:55;;;;;;;51.00;7.50;;;;;;;;;;5028520;28;20061;-59
2021/04/02 02:30:25;;;;;;;59.30;8.50;;;;;;;;;;5027504;28;20479;-59
2021/04/02 02:32:57;;;;;;;43.70;9.35;;;;;;;;;;5029562;28;20123;-59
2021/04/02 02:35:27;;;;;;;44.03;8.70;;;;;;;;;;5035948;28;20538;-59
2021/04/02 02:37:56;;;;;;;36.38;7.28;;;;;;;;;;5018743;28;20572;-59
2021/04/02 02:40:27;;;;;;;62.53;7.88;;;;;;;;;;5026844;28;20049;-59
2021/04/02 02:42:54;;;;;;;55.90;8.25;;;;;;;;;;5018061;28;20048;-59
2021/04/02 02:45:22;;;;;;;55.13;8.10;;;;;;;;;;5036601;28;20049;-59
2021/04/02 02:47:49;;;;;;;51.83;9.13;;;;;;;;;;5045856;28;20053;-59
2021/04/02 02:50:16;;;;;;;;;;;;;;;;;;5044898;28;20087;-59
2021/04/02 02:52:45;;;;;;;38.33;6.60;;;;;;;;;;5031475;28;20004;-59
2021/04/02 02:55:13;;;;;;;47.25;7.97;;;;;;;;;;5025129;28;20045;-59
2021/04/02 02:57:41;;;;;;;39.55;6.28;;;;;;;;;;5029329;28;20049;-59
2021/04/02 03:00:10;;;;;;;43.17;8.77;;;;;;;;;;5045511;28;20068;-59
2021/04/02 03:02:37;;;;;;;50.70;9.40;;;;;;;;;;5049860;28;20056;-59
2021/04/02 03:05:05;;;;;;;42.38;9.25;;;;;;;;;;5029677;28;20578;-59
2021/04/02 03:07:34;;;;;;;57.08;10.60;;;;;;;;;;5032229;28;20041;-59
2021/04/02 03:10:01;;;;;;;50.83;11.32;;;;;;;;;;5025741;28;20095;-59
2021/04/02 03:12:30;;;;;;;50.60;11.57;;;;;;;;;;5031340;28;20069;-59
2021/04/02 03:14:57;;;;;;;43.03;9.93;;;;;;;;;;5042971;28;20780;-59
2021/04/02 03:17:23;;;;;;;44.28;10.93;;;;;;;;;;5044616;28;20098;-59
2021/04/02 03:19:50;;;;;;;45.60;12.55;;;;;;;;;;5041990;28;20043;-59
2021/04/02 03:22:22;;;;;;;67.93;10.55;;;;;;;;;;5033324;28;20512;-59
2021/04/02 03:24:58;;;;;;;49.25;9.18;;;;;;;;;;5030076;28;20562;-59
2021/04/02 03:27:40;;;;;;;51.35;10.80;;;;;;;;;;5055655;28;20414;-59
2021/04/02 03:30:11;;;;;;;59.40;10.95;;;;;;;;;;5050935;28;20048;-59
2021/04/02 03:32:40;;;;;;;49.25;11.30;;;;;;;;;;5062226;28;20095;-58
2021/04/02 03:35:09;;;;;;;43.25;10.70;;;;;;;;;;5043713;28;20469;-59
2021/04/02 03:37:38;;;;;;;48.38;11.27;;;;;;;;;;5051065;28;20139;-59
2021/04/02 03:40:11;;;;;;;49.47;12.95;;;;;;;;;;5062496;28;20110;-59
2021/04/02 03:42:39;;;;;;;44.42;10.15;;;;;;;;;;5061596;28;20060;-59
2021/04/02 03:45:09;;;;;;;31.23;9.60;;;;;;;;;;5039631;28;20064;-59
2021/04/02 03:47:37;;;;;;;30.48;9.90;;;;;;;;;;5051135;28;20051;-59
2021/04/02 03:50:10;;;;;;;49.47;11.35;;;;;;;;;;5045965;28;20040;-59
2021/04/02 03:52:38;;;;;;;26.48;8.93;;;;;;;;;;5052222;28;20041;-59
2021/04/02 03:55:05;;;;;;;39.55;9.60;;;;;;;;;;5060838;28;20151;-58
2021/04/02 03:57:33;;;;;;;35.55;10.40;;;;;;;;;;5054135;28;20055;-59
2021/04/02 04:00:24;;;;;;;30.95;9.75;;;;;;;;;;5062166;28;20044;-59
2021/04/02 04:03:01;;;;;;;41.70;9.88;;;;;;;;;;5042236;28;20155;-59
2021/04/02 04:05:28;;;;;;;38.53;9.85;;;;;;;;;;5060456;28;20443;-58
2021/04/02 04:07:57;;;;;;;24.17;10.10;;;;;;;;;;5043279;28;20146;-59
2021/04/02 04:10:24;;;;;;;;;;;;;;;;;;5049780;28;20048;-59
2021/04/02 04:12:52;;;;;;;30.70;8.98;;;;;;;;;;5065886;28;19920;-59
2021/04/02 04:15:20;;;;;;;33.00;11.25;;;;;;;;;;5038644;28;20040;-59
2021/04/02 04:17:47;;;;;;;36.30;10.82;;;;;;;;;;5063921;28;20073;-59
2021/04/02 04:20:17;;;;;;;37.45;11.10;;;;;;;;;;5049062;28;20041;-59
2021/04/02 04:23:02;;;;;;;49.55;12.27;;;;;;;;;;5060807;28;20132;-59
2021/04/02 04:25:29;;;;;;;40.78;12.05;;;;;;;;;;5063949;28;20036;-59
2021/04/02 04:27:56;;;;;;;34.28;12.13;;;;;;;;;;5069327;28;20412;-59
2021/04/02 04:30:24;;;;;;;45.63;11.00;;;;;;;;;;5062739;28;20115;-59
2021/04/02 04:32:50;;;;;;;34.00;11.20;;;;;;;;;;5066241;28;20052;-59
2021/04/02 04:35:17;;;;;;;51.25;12.93;;;;;;;;;;5049510;28;20041;-59
2021/04/02 04:37:44;;;;;;;50.20;14.23;;;;;;;;;;5066597;28;20044;-59
2021/04/02 04:40:11;;;;;;;;;;;;;;;;;;5062620;28;20511;-59
2021/04/02 04:42:38;;;;;;;177.05;15.10;;;;;;;;;;5066821;28;19928;-59
2021/04/02 04:45:06;;;;;;;303.35;20.00;;;;;;;;;;5064130;28;20554;-59
2021/04/02 04:47:32;;;;;;;200.45;13.75;;;;;;;;;;5069275;28;20044;-59
2021/04/02 04:49:58;;;;;;;218.95;13.18;;;;;;;;;;5063190;28;20041;-59
2021/04/02 04:52:26;;;;;;;308.38;17.17;;;;;;;;;;5067015;28;20047;-59
2021/04/02 04:54:53;;;;;;;287.33;14.73;;;;;;;;;;5063466;28;20455;-59
2021/04/02 04:57:20;;;;;;;316.25;15.52;;;;;;;;;;5062532;28;20463;-59
2021/04/02 04:59:50;;;;;;;487.40;21.65;;;;;;;;;;5061485;28;20135;-59
2021/04/02 05:02:18;;;;;;;441.83;17.95;;;;;;;;;;5066304;28;20047;-59
2021/04/02 05:04:44;;;;;;;;;;;;;;;;;;5066946;28;20057;-59
2021/04/02 05:07:10;;;;;;;241.77;11.57;;;;;;;;;;5061221;28;20031;-59
2021/04/02 05:09:38;;;;;;;270.70;14.23;;;;;;;;;;5069629;28;20086;-59
2021/04/02 05:12:06;;;;;;;316.67;13.90;;;;;;;;;;5051769;28;20052;-59
2021/04/02 05:14:32;;;;;;;234.10;10.57;;;;;;;;;;5064103;28;20059;-59
2021/04/02 05:16:59;;;;;;;338.25;18.80;;;;;;;;;;5067404;28;20041;-59
2021/04/02 05:19:26;;;;;;;220.48;11.38;;;;;;;;;;5067947;28;20098;-59
2021/04/02 05:21:53;;;;;;;184.57;11.43;;;;;;;;;;5069217;28;20496;-59
2021/04/02 05:24:20;;;;;;;270.38;14.40;;;;;;;;;;5067668;28;20129;-59
2021/04/02 05:26:47;;;;;;;146.43;9.73;;;;;;;;;;5066136;28;20048;-59
2021/04/02 05:29:13;;;;;;;200.23;10.25;;;;;;;;;;5062414;28;20124;-59
2021/04/02 05:31:39;;;;;;;200.35;12.85;;;;;;;;;;5069313;28;20402;-59
2021/04/02 05:34:13;;;;;;;227.70;12.93;;;;;;;;;;5068143;28;20068;-59
2021/04/02 05:36:39;;;;;;;180.10;9.15;;;;;;;;;;5064727;28;20099;-59
2021/04/02 05:39:06;;;;;;;139.63;8.27;;;;;;;;;;5062944;28;20036;-59
2021/04/02 05:41:37;;;;;;;157.48;9.00;;;;;;;;;;5067951;28;20466;-59
2021/04/02 05:44:06;;;;;;;237.23;11.30;;;;;;;;;;5065889;28;20492;-59
2021/04/02 05:46:35;;;;;;;154.77;8.77;;;;;;;;;;5066484;28;20041;-58
2021/04/02 05:49:03;;;;;;;164.60;8.77;;;;;;;;;;5061172;28;20135;-59
2021/04/02 05:51:30;;;;;;;475.40;17.30;;;;;;;;;;5059649;28;20042;-59
2021/04/02 05:53:57;;;;;;;371.80;15.57;;;;;;;;;;5063420;28;20037;-59
2021/04/02 05:56:24;;;;;;;388.77;15.07;;;;;;;;;;5066780;28;20492;-59
2021/04/02 05:58:51;;;;;;;549.05;21.30;;;;;;;;;;5069541;28;20048;-59
2021/04/02 06:01:17;;;;;;;408.80;18.38;;;;;;;;;;5065220;28;20056;-59
2021/04/02 06:03:44;;;;;;;419.77;19.35;;;;;;;;;;5062378;28;20510;-58
2021/04/02 06:06:13;;;;;;;204.93;12.20;;;;;;;;;;5066639;28;20040;-59
2021/04/02 06:08:43;;;;;;;473.60;20.67;;;;;;;;;;5061525;28;20147;-59
2021/04/02 06:11:10;;;;;;;566.60;22.30;;;;;;;;;;5065710;28;20055;-58
2021/04/02 06:13:37;;;;;;;318.02;14.82;;;;;;;;;;5063386;28;20052;-59
2021/04/02 06:16:03;;;;;;;489.97;16.93;;;;;;;;;;5061897;28;20029;-59
2021/04/02 06:18:30;;;;;;;453.83;15.68;;;;;;;;;;5066719;28;20382;-58
2021/04/02 06:20:57;;;;;;;571.65;20.50;;;;;;;;;;5065749;28;20044;-59
2021/04/02 06:23:26;;;;;;;444.98;19.20;;;;;;;;;;5059714;28;20082;-59
2021/04/02 06:25:58;;;;;;;326.73;13.63;;;;;;;;;;5065280;28;20047;-59
2021/04/02 06:28:25;;;;;;;408.30;14.27;;;;;;;;;;5059913;28;20041;-59
2021/04/02 06:30:58;;;;;;;379.83;14.13;;;;;;;;;;5064505;28;20051;-58
2021/04/02 06:33:32;;;;;;;128.10;7.80;;;;;;;;;;5069610;28;20044;-59
2021/04/02 06:35:58;;;;;;;165.50;9.13;;;;;;;;;;5065523;28;20059;-59
2021/04/02 06:38:31;;;;;;;10.23;5.78;;;;;;;;;;5061861;28;20029;-58
2021/04/02 06:40:58;;;;;;;13.35;6.18;;;;;;;;;;5066451;28;20064;-58
2021/04/02 06:43:32;;;;;;;15.05;5.57;;;;;;;;;;5065600;28;20093;-59
2021/04/02 06:46:03;;;;;;;182.18;8.05;;;;;;;;;;5064023;28;20056;-59
2021/04/02 06:48:29;;;;;;;11.75;4.90;;;;;;;;;;5059496;28;20049;-59
2021/04/02 06:50:56;;;;;;;6.90;4.60;;;;;;;;;;5066535;28;20499;-59
2021/04/02 06:53:23;;;;;;;7.47;4.05;;;;;;;;;;5068555;28;20379;-59
2021/04/02 06:55:50;;;;;;;6.88;4.45;;;;;;;;;;5064028;28;20048;-59
2021/04/02 06:58:16;;;;;;;7.75;4.78;;;;;;;;;;5065768;28;20036;-59
2021/04/02 07:00:43;;;;;;;6.97;4.40;;;;;;;;;;5068406;28;20135;-59
2021/04/02 07:03:10;;;;;;;5.53;3.60;;;;;;;;;;5069621;28;20041;-59
2021/04/02 07:05:38;;;;;;;6.47;4.13;;;;;;;;;;5050936;28;20771;-59
2021/04/02 07:08:04;;;;;;;7.90;4.25;;;;;;;;;;5066914;28;20080;-59
2021/04/02 07:10:31;;;;;;;5.43;3.40;;;;;;;;;;5066353;28;20033;-59
2021/04/02 07:13:00;;;;;;;3.40;2.65;;;;;;;;;;5061464;28;20044;-59
2021/04/02 07:15:27;;;;;;;3.85;2.50;;;;;;;;;;5066571;28;20029;-59
2021/04/02 07:17:53;;;;;;;7.22;3.05;;;;;;;;;;5064951;28;20040;-59
2021/04/02 07:20:19;;;;;;;6.63;3.08;;;;;;;;;;5063651;28;20710;-59
2021/04/02 07:22:45;;;;;;;3.65;2.47;;;;;;;;;;5066793;28;20093;-59
2021/04/02 07:25:12;;;;;;;6.68;2.20;;;;;;;;;;5049788;28;20398;-59
2021/04/02 07:27:38;;;;;;;3.47;2.15;;;;;;;;;;5067195;28;20105;-59
2021/04/02 07:30:09;;;;;;;3.15;2.20;;;;;;;;;;5067389;28;20050;-59
2021/04/02 07:32:37;;;;;;;2.97;1.75;;;;;;;;;;5067499;28;20037;-59
2021/04/02 07:35:03;;;;;;;4.45;2.20;;;;;;;;;;5063751;28;20044;-59
2021/04/02 07:37:36;;;;;;;2.15;1.48;;;;;;;;;;5067610;28;20060;-59
2021/04/02 07:40:04;;;;;;;5.38;2.00;;;;;;;;;;5063408;28;20162;-59
2021/04/02 07:42:31;;;;;;;2.63;1.60;;;;;;;;;;5061591;28;20068;-59
2021/04/02 07:44:58;;;;;;;3.28;1.65;;;;;;;;;;5063023;28;20095;-59
2021/04/02 07:47:25;;;;;;;3.00;1.75;;;;;;;;;;5066111;28;20094;-59
2021/04/02 07:49:54;;;;;;;2.75;1.52;;;;;;;;;;5065946;28;20048;-59
2021/04/02 07:52:30;;;;;;;4.93;1.60;;;;;;;;;;5063654;28;20045;-59
2021/04/02 07:55:07;;;;;;;2.30;1.50;;;;;;;;;;5063792;28;20036;-59
2021/04/02 07:57:48;;;;;;;2.03;1.50;;;;;;;;;;5063667;28;20048;-59
2021/04/02 08:00:15;;;;;;;2.15;1.70;;;;;;;;;;5061864;28;20052;-59
2021/04/02 08:02:45;;;;;;;3.85;1.42;;;;;;;;;;5059818;28;20500;-59
2021/04/02 08:05:13;;;;;;;3.30;1.33;;;;;;;;;;5058621;28;20044;-59
2021/04/02 08:07:40;;;;;;;2.83;1.20;;;;;;;;;;5061471;28;20040;-59
2021/04/02 08:10:10;;;;;;;2.42;1.30;;;;;;;;;;5062853;28;20045;-59
2021/04/02 08:12:37;;;;;;;3.83;1.30;;;;;;;;;;5060006;28;20385;-59
2021/04/02 08:15:10;;;;;;;1.67;1.20;;;;;;;;;;5064573;28;20041;-59
2021/04/02 08:17:37;;;;;;;2.72;1.35;;;;;;;;;;5061209;28;20045;-59
2021/04/02 08:20:07;;;;;;;3.50;1.63;;;;;;;;;;5064303;28;20064;-59
2021/04/02 08:22:34;;;;;;;3.50;1.70;;;;;;;;;;5060096;28;20632;-59
2021/04/02 08:25:01;;;;;;;2.67;1.10;;;;;;;;;;5062106;28;20118;-59
2021/04/02 08:27:27;;;;;;;;;;;;;;;;;;5064846;28;20084;-59
2021/04/02 08:30:04;;;;;;;2.25;1.63;;;;;;;;;;5062846;28;19921;-59
2021/04/02 08:32:38;;;;;;;2.88;1.70;;;;;;;;;;5065789;28;20064;-59
2021/04/02 08:35:08;;;;;;;2.53;1.30;;;;;;;;;;5058042;28;20515;-59
2021/04/02 08:37:35;;;;;;;2.67;1.50;;;;;;;;;;5064737;28;20144;-59
2021/04/02 08:40:07;;;;;;;3.80;1.57;;;;;;;;;;5065155;28;20049;-59
2021/04/02 08:42:33;;;;;;;3.08;1.60;;;;;;;;;;5067344;28;20041;-59
2021/04/02 08:45:06;;;;;;;2.10;1.60;;;;;;;;;;5060623;28;20037;-59
2021/04/02 08:47:35;;;;;;;2.85;1.50;;;;;;;;;;5063577;28;20048;-59
2021/04/02 08:50:02;;;;;;;2.60;1.35;;;;;;;;;;5066874;28;20045;-59
2021/04/02 08:52:29;;;;;;;2.15;1.27;;;;;;;;;;5063369;28;20055;-59
2021/04/02 08:54:59;;;;;;;2.60;1.50;;;;;;;;;;5064330;28;20079;-59
2021/04/02 08:57:30;;;;;;;3.88;2.38;;;;;;;;;;5066133;28;20044;-59
2021/04/02 08:59:56;;;;;;;1.92;1.48;;;;;;;;;;5061441;28;20036;-59
2021/04/02 09:02:26;;;;;;;1.77;1.30;;;;;;;;;;5063278;28;20052;-59
2021/04/02 09:04:52;;;;;;;2.25;1.40;;;;;;;;;;5057374;28;20286;-60
2021/04/02 09:07:19;;;;;;;1.10;1.00;;;;;;;;;;5060573;28;20500;-59
2021/04/02 09:09:46;;;;;;;1.02;0.98;;;;;;;;;;5062401;28;20290;-59
2021/04/02 09:12:14;;;;;;;1.50;1.08;;;;;;;;;;5059817;28;20053;-59
2021/04/02 09:14:47;;;;;;;2.53;1.38;;;;;;;;;;5063982;28;20037;-59
2021/04/02 09:17:24;;;;;;;1.60;1.17;;;;;;;;;;5063517;28;20072;-59
2021/04/02 09:19:52;;;;;;;3.60;1.40;;;;;;;;;;5064874;28;20099;-59
2021/04/02 09:22:19;;;;;;;3.60;1.27;;;;;;;;;;5065814;28;20045;-59
2021/04/02 09:24:45;;;;;;;;;;;;;;;;;;5068436;28;20072;-59
2021/04/02 09:27:13;;;;;;;2.13;1.27;;;;;;;;;;5065832;28;20306;-59
2021/04/02 09:29:43;;;;;;;1.38;1.08;;;;;;;;;;5068603;28;20036;-59
2021/04/02 09:32:09;;;;;;;1.67;1.10;;;;;;;;;;5066303;28;20051;-59
2021/04/02 09:34:36;;;;;;;2.58;1.50;;;;;;;;;;5059700;28;20547;-59
2021/04/02 09:37:02;;;;;;;1.67;1.17;;;;;;;;;;5056739;28;20044;-60
2021/04/02 09:39:29;;;;;;;3.80;1.23;;;;;;;;;;5062110;28;20087;-59
2021/04/02 09:41:56;;;;;;;1.50;1.27;;;;;;;;;;5061813;28;20048;-60
2021/04/02 09:44:23;;;;;;;;;;;;;;;;;;5062984;28;20080;-60
2021/04/02 09:46:49;;;;;;;3.08;1.30;;;;;;;;;;5063815;28;20346;-59
2021/04/02 09:49:17;;;;;;;7.70;1.40;;;;;;;;;;5071261;28;20049;-59
2021/04/02 09:51:47;;;;;;;2.03;1.20;;;;;;;;;;5069652;28;20048;-59
2021/04/02 09:54:13;;;;;;;6.40;1.50;;;;;;;;;;5063784;28;20044;-59
2021/04/02 09:56:40;;;;;;;4.78;1.52;;;;;;;;;;5069777;28;20080;-59
2021/04/02 09:59:06;;;;;;;3.20;1.48;;;;;;;;;;5065848;28;20499;-59
2021/04/02 10:01:34;;;;;;;2.97;1.75;;;;;;;;;;5051621;28;20139;-59
2021/04/02 10:04:00;;;;;;;1.98;1.50;;;;;;;;;;5063081;28;20071;-59
2021/04/02 10:06:27;;;;;;;2.78;1.60;;;;;;;;;;5063648;28;20144;-60
2021/04/02 10:08:53;;;;;;;1.67;1.40;;;;;;;;;;5063025;28;20404;-59
2021/04/02 10:11:20;;;;;;;4.65;1.45;;;;;;;;;;5066741;28;20052;-60
2021/04/02 10:13:46;;;;;;;2.70;1.35;;;;;;;;;;5056051;28;20041;-60
2021/04/02 10:16:12;;;;;;;4.82;1.70;;;;;;;;;;5043716;28;20041;-59
2021/04/02 10:18:39;;;;;;;3.13;1.40;;;;;;;;;;5062518;28;20065;-60
2021/04/02 10:21:08;;;;;;;2.53;1.33;;;;;;;;;;5065908;28;20127;-59
2021/04/02 10:23:35;;;;;;;2.63;1.10;;;;;;;;;;5065115;28;20115;-59
2021/04/02 10:26:01;;;;;;;3.67;1.50;;;;;;;;;;5065686;28;20527;-59
2021/04/02 10:28:27;;;;;;;1.77;1.45;;;;;;;;;;5063464;28;20052;-60
2021/04/02 10:30:54;;;;;;;3.20;1.15;;;;;;;;;;5063412;28;20037;-60
2021/04/02 10:33:20;;;;;;;2.45;1.58;;;;;;;;;;5069144;28;20047;-59
2021/04/02 10:35:47;;;;;;;1.53;1.30;;;;;;;;;;5063563;28;20064;-59
2021/04/02 10:38:13;;;;;;;3.40;1.02;;;;;;;;;;5063314;28;20416;-60
2021/04/02 10:40:40;;;;;;;2.20;1.48;;;;;;;;;;5065859;28;20051;-60
2021/04/02 10:43:09;;;;;;;4.28;1.38;;;;;;;;;;5061248;28;20052;-59
2021/04/02 10:45:35;;;;;;;2.20;1.20;;;;;;;;;;5065387;28;20040;-59
2021/04/02 10:48:02;;;;;;;2.85;1.13;;;;;;;;;;5064031;28;20075;-59
2021/04/02 10:50:29;;;;;;;2.08;1.27;;;;;;;;;;5067609;28;20087;-59
2021/04/02 10:52:55;;;;;;;1.13;1.00;;;;;;;;;;5058954;28;20067;-60
2021/04/02 10:55:21;;;;;;;2.33;1.25;;;;;;;;;;5064304;28;20041;-60
2021/04/02 10:57:47;;;;;;;3.10;1.10;;;;;;;;;;5062104;28;20040;-60
2021/04/02 11:00:15;;;;;;;2.13;1.10;;;;;;;;;;5061340;28;20102;-59
2021/04/02 11:02:41;;;;;;;1.08;0.98;;;;;;;;;;5061535;28;20138;-59
2021/04/02 11:05:08;;;;;;;2.67;1.25;;;;;;;;;;5063519;28;20132;-60
2021/04/02 11:07:34;;;;;;;1.87;1.20;;;;;;;;;;5063273;28;20499;-60
2021/04/02 11:10:10;;;;;;;1.70;0.90;;;;;;;;;;5063109;28;20298;-59
2021/04/02 11:12:36;;;;;;;3.58;1.25;;;;;;;;;;5059416;28;20042;-59
2021/04/02 11:15:04;;;;;;;4.13;1.00;;;;;;;;;;5066082;28;20040;-60
2021/04/02 11:17:30;;;;;;;1.23;1.10;;;;;;;;;;5061405;28;20135;-60
2021/04/02 11:19:57;;;;;;;1.00;0.85;;;;;;;;;;5059977;28;20040;-60
2021/04/02 11:22:23;;;;;;;0.90;0.80;;;;;;;;;;5060011;28;20041;-59
2021/04/02 11:24:52;;;;;;;2.08;0.90;;;;;;;;;;5065648;28;20044;-60
2021/04/02 11:27:20;;;;;;;2.25;0.98;;;;;;;;;;5064338;28;20160;-60
2021/04/02 11:29:46;;;;;;;1.20;0.90;;;;;;;;;;5063207;28;20130;-60
2021/04/02 11:32:13;;;;;;;;;;;;;;;;;;5065542;28;20029;-60
2021/04/02 11:34:40;;;;;;;1.80;1.00;;;;;;;;;;5065467;28;20019;-59
2021/04/02 11:37:06;;;;;;;2.63;1.00;;;;;;;;;;5064010;28;20115;-59
2021/04/02 11:39:33;;;;;;;2.42;1.20;;;;;;;;;;5062635;28;20040;-60
2021/04/02 11:42:01;;;;;;;2.35;1.17;;;;;;;;;;5061066;28;20041;-60
2021/04/02 11:44:28;;;;;;;1.08;0.98;;;;;;;;;;5062684;28;20048;-61
2021/04/02 11:46:54;;;;;;;1.17;0.98;;;;;;;;;;5058822;28;20045;-60
2021/04/02 11:49:20;;;;;;;0.88;0.80;;;;;;;;;;5055392;28;20072;-59
2021/04/02 11:51:47;;;;;;;2.42;0.90;;;;;;;;;;5062583;28;20029;-60
2021/04/02 11:54:13;;;;;;;2.38;0.98;;;;;;;;;;5066111;28;20448;-60
2021/04/02 11:56:40;;;;;;;1.05;0.95;;;;;;;;;;5054692;28;20083;-60
2021/04/02 11:59:06;;;;;;;1.10;0.65;;;;;;;;;;5061162;28;20036;-59
2021/04/02 12:01:33;;;;;;;0.90;0.82;;;;;;;;;;5063205;28;20056;-59
2021/04/02 12:03:59;;;;;;;1.33;1.00;;;;;;;;;;5062985;28;20155;-59
2021/04/02 12:06:26;;;;;;;1.85;1.10;;;;;;;;;;5061073;28;20057;-60
2021/04/02 12:08:55;;;;;;;1.38;1.13;;;;;;;;;;5058377;28;20044;-60
2021/04/02 12:11:22;;;;;;;2.05;1.30;;;;;;;;;;5059330;28;20560;-59
2021/04/02 12:13:48;;;;;;;1.75;1.08;;;;;;;;;;5055097;28;20044;-59
2021/04/02 12:16:14;;;;;;;2.38;0.95;;;;;;;;;;5062825;28;20091;-59
2021/04/02 12:18:41;;;;;;;2.00;1.20;;;;;;;;;;5065109;28;20496;-60
2021/04/02 12:21:07;;;;;;;3.90;1.38;;;;;;;;;;5061138;28;20120;-60
2021/04/02 12:23:33;;;;;;;1.65;1.20;;;;;;;;;;5057174;28;20071;-60
2021/04/02 12:26:00;;;;;;;1.38;1.00;;;;;;;;;;5060133;28;20035;-60
2021/04/02 12:28:26;;;;;;;3.97;1.43;;;;;;;;;;5061646;28;20119;-60
2021/04/02 12:30:53;;;;;;;1.08;0.82;;;;;;;;;;5060628;28;20045;-60
2021/04/02 12:33:19;;;;;;;1.92;1.05;;;;;;;;;;5063352;28;20062;-60
2021/04/02 12:35:45;;;;;;;3.80;1.10;;;;;;;;;;5061518;28;20407;-60
2021/04/02 12:38:12;;;;;;;1.00;0.68;;;;;;;;;;5062276;28;20041;-59
2021/04/02 12:40:39;;;;;;;0.97;0.73;;;;;;;;;;5057455;28;20056;-60
2021/04/02 12:43:05;;;;;;;0.82;0.77;;;;;;;;;;5059807;28;20142;-60
2021/04/02 12:45:31;;;;;;;2.45;1.00;;;;;;;;;;5036981;28;20053;-60
2021/04/02 12:47:58;;;;;;;1.97;1.10;;;;;;;;;;5048799;28;20179;-59
2021/04/02 12:50:27;;;;;;;1.60;1.00;;;;;;;;;;5070571;28;20032;-59
2021/04/02 12:52:55;;;;;;;2.25;1.13;;;;;;;;;;5066722;28;20052;-59
2021/04/02 12:55:21;;;;;;;;;;;;;;;;;;5065277;28;20531;-59
2021/04/02 12:57:47;;;;;;;3.13;0.90;;;;;;;;;;5069925;28;19920;-60
2021/04/02 13:00:15;;;;;;;2.58;0.82;;;;;;;;;;5065090;28;20041;-60
2021/04/02 13:02:42;;;;;;;0.77;0.60;;;;;;;;;;5061304;28;20044;-59
2021/04/02 13:05:09;;;;;;;2.80;1.13;;;;;;;;;;5067283;28;20057;-59
2021/04/02 13:07:35;;;;;;;1.05;0.80;;;;;;;;;;5064046;28;20044;-59
2021/04/02 13:10:03;;;;;;;0.70;0.70;;;;;;;;;;5068543;28;20072;-60
2021/04/02 13:12:30;;;;;;;3.47;0.80;;;;;;;;;;5062229;28;20072;-60
2021/04/02 13:14:56;;;;;;;1.45;0.80;;;;;;;;;;5066295;28;20071;-59
2021/04/02 13:17:23;;;;;;;4.07;0.80;;;;;;;;;;5069597;28;20060;-59
2021/04/02 13:19:49;;;;;;;1.23;0.73;;;;;;;;;;5070092;28;20032;-59
2021/04/02 13:22:15;;;;;;;1.48;0.80;;;;;;;;;;5063141;28;20068;-60
2021/04/02 13:24:41;;;;;;;1.17;0.52;;;;;;;;;;5068066;28;20049;-60
2021/04/02 13:27:08;;;;;;;1.25;0.65;;;;;;;;;;5064929;28;20134;-59
2021/04/02 13:29:34;;;;;;;0.70;0.60;;;;;;;;;;5055254;28;20123;-59
2021/04/02 13:32:00;;;;;;;1.35;0.70;;;;;;;;;;5055481;28;20086;-59
2021/04/02 13:34:26;;;;;;;0.68;0.68;;;;;;;;;;5062106;28;20036;-59
2021/04/02 13:36:53;;;;;;;2.00;0.80;;;;;;;;;;5064592;28;20090;-59
2021/04/02 13:39:19;;;;;;;3.35;0.80;;;;;;;;;;5063797;28;20037;-59
2021/04/02 13:41:45;;;;;;;1.13;0.75;;;;;;;;;;5069903;28;20043;-59
2021/04/02 13:44:15;;;;;;;0.90;0.80;;;;;;;;;;5065860;28;20109;-59
2021/04/02 13:46:41;;;;;;;1.67;0.82;;;;;;;;;;5065098;28;20110;-59
2021/04/02 13:49:07;;;;;;;1.83;0.90;;;;;;;;;;5067788;28;20033;-59
2021/04/02 13:51:34;;;;;;;1.77;0.90;;;;;;;;;;5064280;28;20425;-59
2021/04/02 13:54:00;;;;;;;0.70;0.60;;;;;;;;;;5067896;28;20056;-59
2021/04/02 13:56:26;;;;;;;1.30;0.70;;;;;;;;;;5067189;28;20039;-59
2021/04/02 13:58:52;;;;;;;1.48;0.88;;;;;;;;;;5066156;28;20053;-59
2021/04/02 14:01:19;;;;;;;1.75;0.77;;;;;;;;;;5060733;28;20508;-60
2021/04/02 14:03:45;;;;;;;2.25;0.90;;;;;;;;;;5064790;28;20052;-59
2021/04/02 14:06:12;;;;;;;2.20;1.20;;;;;;;;;;5057876;28;20065;-60
2021/04/02 14:08:39;;;;;;;;;;;;;;;;;;5060459;28;20492;-59
2021/04/02 14:11:05;;;;;;;1.02;0.43;;;;;;;;;;5060572;28;19921;-59
2021/04/02 14:13:31;;;;;;;2.00;0.75;;;;;;;;;;5066634;28;20048;-59
2021/04/02 14:15:57;;;;;;;1.58;0.70;;;;;;;;;;5065297;28;20544;-59
2021/04/02 14:18:23;;;;;;;1.33;0.47;;;;;;;;;;5062861;28;20083;-60
2021/04/02 14:20:50;;;;;;;2.67;0.70;;;;;;;;;;5063384;28;20135;-59
2021/04/02 14:23:28;;;;;;;0.45;0.45;;;;;;;;;;5064857;28;20045;-59
2021/04/02 14:25:55;;;;;;;2.65;0.70;;;;;;;;;;5063618;28;20075;-59
2021/04/02 14:28:21;;;;;;;2.28;0.73;;;;;;;;;;5064859;28;20056;-59
2021/04/02 14:30:47;;;;;;;1.75;0.60;;;;;;;;;;5069835;28;20489;-59
2021/04/02 14:33:14;;;;;;;0.82;0.60;;;;;;;;;;5058717;28;20076;-59
2021/04/02 14:35:41;;;;;;;0.73;0.47;;;;;;;;;;5063583;28;20131;-60
2021/04/02 14:38:10;;;;;;;1.77;0.50;;;;;;;;;;5049681;28;20049;-59
2021/04/02 14:40:43;;;;;;;0.75;0.52;;;;;;;;;;5049784;28;20064;-59
2021/04/02 14:43:10;;;;;;;1.83;0.50;;;;;;;;;;5065402;28;20044;-59